createdAt,value
2023-01-25T00:01:47.586Z,21.17
2023-01-25T00:04:14.993Z,19.17
2023-01-25T00:06:42.328Z,0.73
2023-01-25T00:09:10.790Z,0.37
2023-01-25T00:11:38.113Z,0.77
2023-01-25T00:14:05.968Z,5.27
2023-01-25T00:16:33.445Z,12.23
2023-01-25T00:19:00.819Z,20.90
2023-01-25T00:21:28.165Z,20.70
2023-01-25T00:23:55.629Z,18.87
2023-01-25T00:26:23.104Z,21.33
2023-01-25T00:28:51.254Z,13.87
2023-01-25T00:31:22.567Z,19.87
2023-01-25T00:34:02.762Z,9.23
2023-01-25T00:36:34.291Z,2.07
2023-01-25T00:39:01.704Z,4.67
2023-01-25T00:41:29.090Z,10.10
2023-01-25T00:43:56.356Z,10.67
2023-01-25T00:46:23.780Z,19.47
2023-01-25T00:48:54.365Z,20.87
2023-01-25T00:51:22.068Z,20.77
2023-01-25T00:53:49.515Z,21.47
2023-01-25T00:56:16.836Z,22.03
2023-01-25T00:58:44.282Z,22.00
2023-01-25T01:01:11.795Z,22.17
2023-01-25T01:03:39.423Z,10.10
2023-01-25T01:06:10.992Z,2.53
2023-01-25T01:08:41.286Z,0.20
2023-01-25T01:11:10.056Z,0.30
2023-01-25T01:13:37.503Z,0.20
2023-01-25T01:16:05.413Z,9.20
2023-01-25T01:18:36.130Z,3.23
2023-01-25T01:21:03.838Z,19.70
2023-01-25T01:23:31.924Z,19.77
2023-01-25T01:26:02.690Z,21.07
2023-01-25T01:28:33.345Z,21.63
2023-01-25T01:31:01.353Z,19.47
2023-01-25T01:33:28.761Z,16.43
2023-01-25T01:35:56.177Z,21.50
2023-01-25T01:38:23.531Z,20.80
2023-01-25T01:40:50.969Z,22.10
2023-01-25T01:43:24.585Z,1.27
2023-01-25T01:45:56.942Z,5.20
2023-01-25T01:48:30.292Z,1.27
2023-01-25T01:51:19.564Z,0.30
2023-01-25T01:53:55.524Z,0.30
2023-01-25T01:56:24.732Z,3.30
2023-01-25T01:58:52.072Z,0.67
2023-01-25T02:01:20.531Z,0.77
2023-01-25T02:03:47.980Z,2.60
2023-01-25T02:06:16.372Z,6.33
2023-01-25T02:08:44.109Z,4.67
2023-01-25T02:11:11.570Z,5.67
2023-01-25T02:13:38.813Z,0.30
2023-01-25T02:16:06.392Z,0.40
2023-01-25T02:18:33.715Z,0.30
2023-01-25T02:21:01.142Z,2.30
2023-01-25T02:23:28.499Z,9.47
2023-01-25T02:25:56.397Z,5.93
2023-01-25T02:28:27.808Z,1.13
2023-01-25T02:30:55.357Z,0.20
2023-01-25T02:33:25.780Z,0.90
2023-01-25T02:36:08.619Z,0.90
2023-01-25T02:38:36.715Z,0.80
2023-01-25T02:41:05.261Z,19.43
2023-01-25T02:43:32.774Z,2.83
2023-01-25T02:46:20.444Z,2.87
2023-01-25T02:48:47.838Z,0.30
2023-01-25T02:51:15.275Z,14.13
2023-01-25T02:53:42.551Z,3.63
2023-01-25T02:56:09.900Z,1.13
2023-01-25T02:58:37.168Z,14.33
2023-01-25T03:01:04.620Z,0.97
2023-01-25T03:03:32.281Z,1.30
2023-01-25T03:05:59.793Z,0.40
2023-01-25T03:08:27.089Z,0.30
2023-01-25T03:10:59.736Z,0.80
2023-01-25T03:13:27.146Z,0.20
2023-01-25T03:15:59.058Z,0.97
2023-01-25T03:18:26.391Z,1.60
2023-01-25T03:20:53.796Z,0.50
2023-01-25T03:23:21.200Z,9.03
2023-01-25T03:25:48.551Z,12.77
2023-01-25T03:28:15.811Z,17.07
2023-01-25T03:30:43.166Z,2.10
2023-01-25T03:33:10.495Z,0.57
2023-01-25T03:35:37.775Z,10.27
2023-01-25T03:38:05.187Z,17.83
2023-01-25T03:40:32.547Z,0.30
2023-01-25T03:42:59.903Z,1.23
2023-01-25T03:45:27.232Z,0.30
2023-01-25T03:47:54.555Z,11.27
2023-01-25T03:50:21.934Z,10.80
2023-01-25T03:52:57.455Z,6.27
2023-01-25T03:55:24.780Z,5.43
2023-01-25T03:57:52.177Z,11.40
2023-01-25T04:00:20.195Z,6.80
2023-01-25T04:02:47.717Z,21.43
2023-01-25T04:05:15.046Z,22.33
2023-01-25T04:07:42.402Z,19.40
2023-01-25T04:10:10.106Z,21.00
2023-01-25T04:12:38.224Z,24.53
2023-01-25T04:15:05.705Z,23.03
2023-01-25T04:17:33.145Z,22.97
2023-01-25T04:20:00.594Z,21.43
2023-01-25T04:22:27.943Z,20.27
2023-01-25T04:24:55.304Z,21.20
2023-01-25T04:27:22.658Z,18.00
2023-01-25T04:29:50.199Z,22.37
2023-01-25T04:32:17.631Z,19.47
2023-01-25T04:34:45.070Z,2.00
2023-01-25T04:37:12.592Z,20.00
2023-01-25T04:39:39.999Z,22.53
2023-01-25T04:42:07.336Z,21.27
2023-01-25T04:44:34.682Z,20.33
2023-01-25T04:47:02.076Z,20.23
2023-01-25T04:49:29.440Z,20.80
2023-01-25T04:51:56.820Z,22.43
2023-01-25T04:54:24.215Z,21.33
2023-01-25T04:56:51.551Z,22.83
2023-01-25T04:59:18.929Z,19.80
2023-01-25T05:01:49.348Z,19.13
2023-01-25T05:04:16.727Z,22.00
2023-01-25T05:06:44.028Z,22.57
2023-01-25T05:09:11.445Z,21.93
2023-01-25T05:11:38.775Z,22.13
2023-01-25T05:14:06.272Z,23.30
2023-01-25T05:16:33.634Z,20.43
2023-01-25T05:19:00.961Z,20.33
2023-01-25T05:21:46.886Z,21.53
2023-01-25T05:24:14.388Z,20.20
2023-01-25T05:27:14.098Z,22.23
2023-01-25T05:29:41.724Z,22.03
2023-01-25T05:32:13.298Z,23.87
2023-01-25T05:34:40.936Z,22.70
2023-01-25T05:37:08.732Z,21.37
2023-01-25T05:39:36.069Z,21.40
2023-01-25T05:42:03.480Z,23.73
2023-01-25T05:44:30.716Z,11.13
2023-01-25T05:46:58.070Z,23.00
2023-01-25T05:49:25.385Z,24.77
2023-01-25T05:51:52.756Z,26.57
2023-01-25T05:54:20.030Z,25.03
2023-01-25T05:56:48.681Z,27.53
2023-01-25T05:59:15.976Z,26.30
2023-01-25T06:01:43.395Z,25.03
2023-01-25T06:04:11.593Z,23.10
2023-01-25T06:06:38.908Z,21.60
2023-01-25T06:09:06.211Z,19.63
2023-01-25T06:11:33.543Z,0.67
2023-01-25T06:14:00.798Z,12.60
2023-01-25T06:16:28.044Z,23.13
2023-01-25T06:18:55.379Z,22.17
2023-01-25T06:21:23.376Z,24.00
2023-01-25T06:23:50.806Z,25.40
2023-01-25T06:26:18.267Z,27.33
2023-01-25T06:28:45.723Z,23.20
2023-01-25T06:31:13.136Z,24.17
2023-01-25T06:33:41.133Z,25.23
2023-01-25T06:36:14.962Z,26.97
2023-01-25T06:38:42.481Z,26.57
2023-01-25T06:41:12.068Z,26.47
2023-01-25T06:43:39.595Z,29.03
2023-01-25T06:46:07.953Z,27.87
2023-01-25T06:48:35.275Z,27.13
2023-01-25T06:51:03.454Z,27.20
2023-01-25T06:53:31.475Z,28.17
2023-01-25T06:56:02.548Z,26.50
2023-01-25T06:58:29.970Z,25.83
2023-01-25T07:01:01.006Z,26.33
2023-01-25T07:03:28.791Z,26.37
2023-01-25T07:06:00.034Z,27.73
2023-01-25T07:08:27.569Z,25.43
2023-01-25T07:10:55.656Z,26.07
2023-01-25T07:13:23.127Z,21.50
2023-01-25T07:15:56.893Z,24.27
2023-01-25T07:18:24.417Z,24.77
2023-01-25T07:20:51.829Z,23.87
2023-01-25T07:23:19.693Z,25.83
2023-01-25T07:25:50.761Z,25.33
2023-01-25T07:28:18.222Z,27.07
2023-01-25T07:30:45.655Z,26.13
2023-01-25T07:33:12.993Z,25.97
2023-01-25T07:35:40.257Z,25.73
2023-01-25T07:38:07.864Z,24.13
2023-01-25T07:40:35.172Z,28.47
2023-01-25T07:43:02.553Z,24.13
2023-01-25T07:45:32.650Z,26.67
2023-01-25T07:48:00.132Z,25.37
2023-01-25T07:50:27.908Z,27.13
2023-01-25T07:52:55.520Z,27.00
2023-01-25T07:55:22.968Z,25.20
2023-01-25T07:57:50.520Z,26.70
2023-01-25T08:00:18.014Z,23.10
2023-01-25T08:02:45.347Z,24.40
2023-01-25T08:05:12.654Z,23.13
2023-01-25T08:07:40.066Z,26.00
2023-01-25T08:10:07.511Z,24.97
2023-01-25T08:12:35.072Z,23.27
2023-01-25T08:15:02.644Z,28.63
2023-01-25T08:17:32.855Z,25.33
2023-01-25T08:20:01.704Z,25.87
2023-01-25T08:22:29.112Z,25.90
2023-01-25T08:24:56.822Z,24.63
2023-01-25T08:27:24.491Z,26.13
2023-01-25T08:29:54.045Z,25.70
2023-01-25T08:32:21.421Z,25.53
2023-01-25T08:34:48.737Z,23.60
2023-01-25T08:37:16.108Z,27.00
2023-01-25T08:39:43.453Z,25.70
2023-01-25T08:42:10.828Z,26.00
2023-01-25T08:44:38.192Z,26.57
2023-01-25T08:47:05.592Z,25.40
2023-01-25T08:49:34.543Z,26.17
2023-01-25T08:52:01.952Z,25.70
2023-01-25T08:54:29.326Z,25.23
2023-01-25T08:56:56.720Z,24.63
2023-01-25T08:59:24.129Z,25.00
2023-01-25T09:01:51.553Z,25.43
2023-01-25T09:04:19.662Z,24.03
2023-01-25T09:06:47.055Z,22.87
2023-01-25T09:09:14.417Z,24.43
2023-01-25T09:11:41.770Z,24.20
2023-01-25T09:14:09.148Z,24.57
2023-01-25T09:16:36.479Z,24.70
2023-01-25T09:19:04.548Z,23.53
2023-01-25T09:21:32.041Z,24.40
2023-01-25T09:24:07.899Z,25.47
2023-01-25T09:26:36.273Z,24.63
2023-01-25T09:29:03.637Z,24.13
2023-01-25T09:31:31.244Z,22.93
2023-01-25T09:33:58.801Z,24.13
2023-01-25T09:36:26.219Z,26.20
2023-01-25T09:38:53.639Z,26.37
2023-01-25T09:41:39.564Z,24.83
2023-01-25T09:44:22.167Z,25.43
2023-01-25T09:46:53.958Z,24.57
2023-01-25T09:49:21.391Z,24.13
2023-01-25T09:52:08.193Z,23.90
2023-01-25T09:54:46.536Z,24.97
2023-01-25T09:57:27.813Z,24.37
2023-01-25T09:59:55.101Z,23.10
2023-01-25T10:02:22.484Z,24.93
2023-01-25T10:04:51.868Z,23.97
2023-01-25T10:07:25.300Z,23.97
2023-01-25T10:09:54.533Z,23.60
2023-01-25T10:12:23.715Z,23.93
2023-01-25T10:14:51.211Z,23.80
2023-01-25T10:17:21.527Z,24.47
2023-01-25T10:19:52.276Z,21.23
2023-01-25T10:22:23.163Z,20.63
2023-01-25T10:25:12.220Z,21.50
2023-01-25T10:27:42.377Z,22.77
2023-01-25T10:30:19.393Z,22.80
2023-01-25T10:32:54.882Z,22.37
2023-01-25T10:35:34.824Z,25.20
2023-01-25T10:38:08.208Z,21.33
2023-01-25T10:40:39.531Z,22.07
2023-01-25T10:43:15.495Z,24.77
2023-01-25T10:45:44.589Z,22.27
2023-01-25T10:48:13.608Z,24.53
2023-01-25T10:50:47.029Z,23.83
2023-01-25T10:53:22.056Z,24.77
2023-01-25T10:56:00.824Z,24.40
2023-01-25T10:58:35.187Z,26.20
2023-01-25T11:01:02.596Z,19.63
2023-01-25T11:03:39.850Z,20.27
2023-01-25T11:06:07.789Z,22.73
2023-01-25T11:08:38.956Z,22.73
2023-01-25T11:11:25.643Z,17.90
2023-01-25T11:13:55.083Z,12.40
2023-01-25T11:16:33.087Z,22.03
2023-01-25T11:19:00.917Z,20.53
2023-01-25T11:21:28.945Z,22.40
2023-01-25T11:24:00.097Z,21.70
2023-01-25T11:26:27.435Z,22.20
2023-01-25T11:29:08.103Z,21.97
2023-01-25T11:31:36.018Z,21.33
2023-01-25T11:34:03.408Z,21.87
2023-01-25T11:36:30.792Z,22.97
2023-01-25T11:39:07.292Z,22.93
2023-01-25T11:41:37.694Z,21.77
2023-01-25T11:44:08.464Z,20.87
2023-01-25T11:46:35.854Z,24.03
2023-01-25T11:49:12.188Z,21.63
2023-01-25T11:51:44.869Z,20.50
2023-01-25T11:54:21.416Z,22.57
2023-01-25T11:56:57.127Z,23.87
2023-01-25T11:59:30.391Z,22.43
2023-01-25T12:01:57.680Z,22.77
2023-01-25T12:04:29.011Z,21.00
2023-01-25T12:06:56.386Z,18.17
2023-01-25T12:09:23.747Z,20.47
2023-01-25T12:12:11.418Z,21.17
2023-01-25T12:14:38.780Z,23.60
2023-01-25T12:17:11.970Z,21.03
2023-01-25T12:19:51.552Z,19.50
2023-01-25T12:22:42.208Z,21.80
2023-01-25T12:25:28.294Z,20.80
2023-01-25T12:28:14.321Z,22.67
2023-01-25T12:31:01.273Z,21.13
2023-01-25T12:33:28.669Z,23.43
2023-01-25T12:36:00.784Z,22.57
2023-01-25T12:38:33.660Z,24.90
2023-01-25T12:41:03.467Z,25.20
2023-01-25T12:43:38.915Z,25.30
2023-01-25T12:46:10.432Z,25.13
2023-01-25T12:48:41.401Z,24.97
2023-01-25T12:51:08.726Z,26.67
2023-01-25T12:53:36.213Z,26.57
2023-01-25T12:56:05.584Z,24.60
2023-01-25T12:58:41.841Z,23.90
2023-01-25T13:01:14.111Z,23.83
2023-01-25T13:03:44.495Z,26.10
2023-01-25T13:06:21.159Z,24.17
2023-01-25T13:08:51.175Z,23.70
2023-01-25T13:11:20.659Z,21.90
2023-01-25T13:13:48.087Z,22.53
2023-01-25T13:16:30.826Z,20.73
2023-01-25T13:18:58.569Z,21.13
2023-01-25T13:21:38.213Z,20.90
2023-01-25T13:24:21.988Z,22.17
2023-01-25T13:26:49.512Z,17.77
2023-01-25T13:29:38.700Z,16.80
2023-01-25T13:32:06.656Z,19.63
2023-01-25T13:34:34.113Z,21.10
2023-01-25T13:37:01.756Z,20.60
2023-01-25T13:39:29.117Z,20.93
2023-01-25T13:42:03.442Z,22.33
2023-01-25T13:44:31.925Z,20.83
2023-01-25T13:46:59.864Z,20.63
2023-01-25T13:49:28.533Z,20.40
2023-01-25T13:51:55.986Z,19.83
2023-01-25T13:54:23.439Z,21.63
2023-01-25T13:56:51.597Z,21.90
2023-01-25T13:59:28.483Z,19.47
2023-01-25T14:01:57.390Z,23.30
2023-01-25T14:04:24.863Z,20.73
2023-01-25T14:06:56.222Z,21.73
2023-01-25T14:09:24.045Z,14.63
2023-01-25T14:11:57.915Z,20.30
2023-01-25T14:14:29.363Z,15.90
2023-01-25T14:17:23.372Z,19.83
2023-01-25T14:19:51.687Z,21.73
2023-01-25T14:22:19.006Z,23.03
2023-01-25T14:24:46.636Z,21.70
2023-01-25T14:27:14.186Z,23.13
2023-01-25T14:29:41.649Z,21.00
2023-01-25T14:32:14.535Z,22.27
2023-01-25T14:34:41.878Z,20.47
2023-01-25T14:37:20.857Z,22.80
2023-01-25T14:39:48.517Z,19.00
2023-01-25T14:42:19.029Z,22.80
2023-01-25T14:44:46.410Z,22.43
2023-01-25T14:47:23.283Z,22.03
2023-01-25T14:49:50.793Z,24.23
2023-01-25T14:52:19.552Z,20.97
2023-01-25T14:54:46.903Z,20.50
2023-01-25T14:57:33.052Z,21.23
2023-01-25T15:00:01.358Z,22.27
2023-01-25T15:02:47.401Z,20.73
2023-01-25T15:05:25.040Z,24.20
2023-01-25T15:07:53.165Z,21.23
2023-01-25T15:10:20.605Z,21.67
2023-01-25T15:13:04.215Z,22.30
2023-01-25T15:15:50.629Z,23.10
2023-01-25T15:18:36.507Z,17.33
2023-01-25T15:21:03.930Z,21.67
2023-01-25T15:23:31.336Z,21.47
2023-01-25T15:25:59.469Z,18.87
2023-01-25T15:28:28.116Z,24.20
2023-01-25T15:30:57.657Z,21.00
2023-01-25T15:33:26.100Z,21.47
2023-01-25T15:35:53.565Z,20.23
2023-01-25T15:38:22.005Z,23.83
2023-01-25T15:40:50.829Z,23.97
2023-01-25T15:43:18.451Z,26.33
2023-01-25T15:45:47.038Z,23.33
2023-01-25T15:48:16.165Z,23.17
2023-01-25T15:50:43.556Z,25.73
2023-01-25T15:53:17.218Z,25.93
2023-01-25T15:55:45.461Z,24.90
2023-01-25T15:58:26.789Z,25.87
2023-01-25T16:00:54.474Z,26.10
2023-01-25T16:03:21.912Z,22.63
2023-01-25T16:05:51.822Z,24.33
2023-01-25T16:08:20.998Z,26.00
2023-01-25T16:10:49.211Z,26.13
2023-01-25T16:13:16.730Z,27.93
2023-01-25T16:15:44.024Z,25.03
2023-01-25T16:18:13.404Z,25.93
2023-01-25T16:20:41.086Z,27.47
2023-01-25T16:23:08.956Z,25.67
2023-01-25T16:25:36.382Z,26.50
2023-01-25T16:28:03.932Z,30.50
2023-01-25T16:30:34.244Z,29.37
2023-01-25T16:33:01.861Z,29.60
2023-01-25T16:35:29.498Z,28.63
2023-01-25T16:37:57.539Z,33.33
2023-01-25T16:40:25.844Z,31.17
2023-01-25T16:42:53.533Z,29.63
2023-01-25T16:45:21.011Z,28.17
2023-01-25T16:47:48.553Z,29.83
2023-01-25T16:50:16.518Z,33.60
2023-01-25T16:52:45.096Z,30.40
2023-01-25T16:55:13.055Z,29.43
2023-01-25T16:57:40.968Z,28.87
2023-01-25T17:00:10.781Z,31.20
2023-01-25T17:02:41.861Z,30.97
2023-01-25T17:05:11.724Z,31.33
2023-01-25T17:07:39.153Z,32.00
2023-01-25T17:10:08.503Z,30.93
2023-01-25T17:12:36.291Z,31.40
2023-01-25T17:15:04.259Z,31.50
2023-01-25T17:17:31.865Z,31.77
2023-01-25T17:19:59.284Z,34.43
2023-01-25T17:22:26.784Z,34.70
2023-01-25T17:24:55.854Z,34.17
2023-01-25T17:27:23.451Z,34.70
2023-01-25T17:29:50.858Z,36.30
2023-01-25T17:32:18.250Z,38.93
2023-01-25T17:34:45.715Z,36.90
2023-01-25T17:37:13.044Z,38.47
2023-01-25T17:39:40.482Z,37.60
2023-01-25T17:42:09.311Z,39.83
2023-01-25T17:44:36.640Z,39.00
2023-01-25T17:47:03.987Z,39.53
2023-01-25T17:49:31.557Z,37.90
2023-01-25T17:51:58.955Z,36.93
2023-01-25T17:54:26.308Z,37.13
2023-01-25T17:56:55.285Z,38.70
2023-01-25T17:59:22.595Z,38.30
2023-01-25T18:01:50.627Z,40.57
2023-01-25T18:04:18.156Z,36.17
2023-01-25T18:06:45.719Z,45.75
2023-01-25T18:09:13.173Z,37.00
2023-01-25T18:11:41.289Z,38.27
2023-01-25T18:14:09.838Z,38.90
2023-01-25T18:16:38.884Z,38.27
2023-01-25T18:19:06.732Z,40.43
2023-01-25T18:21:34.154Z,37.87
2023-01-25T18:24:06.120Z,35.47
2023-01-25T18:26:35.333Z,39.67
2023-01-25T18:29:05.197Z,41.13
2023-01-25T18:31:32.797Z,37.63
2023-01-25T18:34:00.238Z,37.90
2023-01-25T18:36:27.583Z,37.87
2023-01-25T18:38:55.148Z,39.67
2023-01-25T18:41:22.931Z,37.57
2023-01-25T18:43:50.497Z,39.97
2023-01-25T18:46:17.908Z,37.30
2023-01-25T18:48:47.311Z,39.57
2023-01-25T18:51:15.600Z,34.27
2023-01-25T18:53:44.270Z,36.17
2023-01-25T18:56:18.388Z,37.53
2023-01-25T18:58:45.793Z,29.37
2023-01-25T19:01:20.173Z,36.93
2023-01-25T19:03:47.810Z,35.73
2023-01-25T19:06:15.384Z,36.40
2023-01-25T19:08:44.594Z,36.10
2023-01-25T19:11:13.180Z,36.57
2023-01-25T19:13:40.761Z,38.13
2023-01-25T19:16:09.012Z,36.63
2023-01-25T19:18:37.066Z,37.73
2023-01-25T19:21:07.382Z,39.27
2023-01-25T19:23:35.186Z,35.70
2023-01-25T19:26:02.706Z,37.23
2023-01-25T19:28:30.157Z,40.20
2023-01-25T19:30:57.715Z,39.27
2023-01-25T19:33:25.085Z,40.70
2023-01-25T19:35:59.297Z,38.83
2023-01-25T19:38:26.655Z,34.43
2023-01-25T19:40:54.134Z,39.10
2023-01-25T19:43:21.545Z,39.23
2023-01-25T19:45:48.903Z,33.03
2023-01-25T19:48:16.224Z,38.53
2023-01-25T19:50:43.609Z,41.20
2023-01-25T19:53:10.930Z,40.30
2023-01-25T19:55:38.474Z,38.23
2023-01-25T19:58:08.878Z,39.37
2023-01-25T20:00:36.231Z,38.00
2023-01-25T20:03:15.637Z,39.93
2023-01-25T20:05:43.554Z,38.10
2023-01-25T20:08:10.925Z,36.73
2023-01-25T20:10:38.299Z,39.33
2023-01-25T20:13:05.729Z,38.57
2023-01-25T20:15:33.060Z,38.23
2023-01-25T20:18:00.455Z,36.67
2023-01-25T20:20:27.948Z,40.50
2023-01-25T20:22:55.304Z,38.17
2023-01-25T20:25:22.656Z,37.40
2023-01-25T20:27:50.052Z,34.40
2023-01-25T20:30:17.568Z,37.60
2023-01-25T20:32:45.013Z,35.70
2023-01-25T20:35:12.731Z,36.43
2023-01-25T20:37:40.209Z,37.37
2023-01-25T20:40:08.185Z,36.70
2023-01-25T20:42:35.559Z,34.50
2023-01-25T20:45:02.935Z,35.70
2023-01-25T20:47:30.283Z,36.20
2023-01-25T20:49:57.855Z,35.77
2023-01-25T20:52:25.184Z,36.37
2023-01-25T20:54:54.042Z,37.80
2023-01-25T20:57:21.507Z,35.63
2023-01-25T20:59:48.918Z,32.47
2023-01-25T21:02:16.648Z,35.53
2023-01-25T21:04:44.077Z,32.87
2023-01-25T21:07:11.542Z,33.87
2023-01-25T21:09:39.126Z,32.03
2023-01-25T21:12:07.339Z,33.90
2023-01-25T21:14:34.757Z,32.47
2023-01-25T21:17:02.134Z,33.80
2023-01-25T21:19:29.639Z,33.67
2023-01-25T21:21:57.039Z,33.37
2023-01-25T21:24:24.473Z,30.27
2023-01-25T21:26:52.066Z,30.20
2023-01-25T21:29:21.306Z,29.40
2023-01-25T21:31:49.374Z,32.13
2023-01-25T21:34:17.002Z,31.00
2023-01-25T21:36:44.508Z,29.27
2023-01-25T21:39:11.810Z,30.97
2023-01-25T21:41:39.163Z,29.43
2023-01-25T21:44:25.340Z,29.57
2023-01-25T21:47:19.770Z,28.37
2023-01-25T21:49:58.630Z,29.93
2023-01-25T21:52:25.960Z,28.33
2023-01-25T21:54:53.317Z,31.83
2023-01-25T21:57:20.741Z,28.60
2023-01-25T21:59:49.010Z,26.33
2023-01-25T22:02:16.447Z,25.87
2023-01-25T22:04:43.878Z,29.27
2023-01-25T22:07:11.402Z,26.10
2023-01-25T22:09:38.751Z,27.93
2023-01-25T22:12:06.108Z,26.23
2023-01-25T22:14:33.537Z,27.27
2023-01-25T22:17:02.279Z,28.27
2023-01-25T22:19:29.704Z,26.37
2023-01-25T22:21:57.044Z,24.00
2023-01-25T22:24:24.487Z,22.63
2023-01-25T22:26:54.522Z,22.27
2023-01-25T22:29:21.982Z,22.00
2023-01-25T22:31:49.437Z,21.97
2023-01-25T22:34:16.839Z,22.77
2023-01-25T22:36:44.598Z,20.80
2023-01-25T22:39:14.381Z,23.43
2023-01-25T22:41:41.820Z,22.20
2023-01-25T22:44:10.057Z,21.13
2023-01-25T22:46:37.418Z,21.10
2023-01-25T22:49:05.053Z,20.57
2023-01-25T22:51:32.432Z,21.47
2023-01-25T22:53:59.862Z,19.20
2023-01-25T22:56:28.111Z,20.43
2023-01-25T22:58:55.609Z,19.80
2023-01-25T23:01:23.890Z,18.20
2023-01-25T23:03:51.297Z,19.30
2023-01-25T23:06:22.396Z,17.73
2023-01-25T23:08:49.789Z,17.83
2023-01-25T23:11:17.996Z,18.77
2023-01-25T23:14:04.373Z,19.67
2023-01-25T23:16:31.647Z,17.50
2023-01-25T23:18:58.890Z,17.23
2023-01-25T23:21:27.443Z,13.90
2023-01-25T23:23:58.138Z,18.17
2023-01-25T23:26:25.445Z,17.47
2023-01-25T23:28:53.403Z,17.00
2023-01-25T23:31:24.485Z,18.13
2023-01-25T23:33:55.582Z,17.20
2023-01-25T23:36:23.698Z,15.23
2023-01-25T23:38:51.039Z,18.53
2023-01-25T23:41:19.099Z,18.87
2023-01-25T23:43:46.558Z,17.17
2023-01-25T23:46:14.768Z,18.30
2023-01-25T23:48:42.602Z,17.67
2023-01-25T23:51:11.111Z,16.77
2023-01-25T23:53:38.731Z,16.93
2023-01-25T23:56:07.164Z,17.80
2023-01-25T23:58:35.199Z,18.20
